Time;durP1;ratioP1;P1;durP2;ratioP2;P2;SDS_P1;SDS_P2;PMS_P1;PMS_P2;Temp;Humidity;BMP_temperature;BMP_pressure;BME280_temperature;BME280_humidity;BME280_pressure;Samples;Min_cycle;Max_cycle;Signal;HPM_P1;HPM_P2
2022/05/30 00:00:48;;;;;;;2.27;2.10;;;;;;;10.81;71.32;95034.16;4986054;28;20277;-81
2022/05/30 00:03:15;;;;;;;2.00;1.90;;;;;;;10.85;70.69;95032.00;4986467;28;20581;-82
2022/05/30 00:05:46;;;;;;;2.20;2.00;;;;;;;10.74;71.61;95028.19;4982973;28;20231;-81
2022/05/30 00:08:12;;;;;;;2.17;1.80;;;;;;;10.81;70.91;95025.63;4981861;28;20223;-81
2022/05/30 00:10:39;;;;;;;2.40;2.20;;;;;;;10.64;72.07;95025.16;4987891;28;20233;-81
2022/05/30 00:13:06;;;;;;;3.50;2.10;;;;;;;10.50;72.18;95019.16;4989245;28;20249;-82
2022/05/30 00:15:33;;;;;;;3.13;2.30;;;;;;;10.43;72.91;95027.81;4986413;28;20237;-81
2022/05/30 00:18:00;;;;;;;5.03;2.40;;;;;;;10.46;73.02;95030.00;4982921;28;20227;-82
2022/05/30 00:20:27;;;;;;;2.43;2.23;;;;;;;10.58;72.53;95026.72;4989257;28;20755;-82
2022/05/30 00:22:53;;;;;;;2.20;2.00;;;;;;;10.64;71.68;95025.16;4991711;28;20241;-82
2022/05/30 00:25:20;;;;;;;2.43;2.07;;;;;;;10.65;71.72;95019.03;4988370;28;20220;-82
2022/05/30 00:27:46;;;;;;;3.10;2.30;;;;;;;10.58;71.13;95025.94;4984153;28;22445;-82
2022/05/30 00:30:14;;;;;;;2.20;2.10;;;;;;;10.61;71.40;95023.75;4988483;28;20231;-81
2022/05/30 00:32:43;;;;;;;2.20;2.00;;;;;;;10.66;70.92;95024.00;4992751;28;20196;-82
2022/05/30 00:35:10;;;;;;;2.23;2.07;;;;;;;10.71;70.93;95019.06;4987964;28;20647;-82
2022/05/30 00:37:37;;;;;;;2.30;2.10;;;;;;;10.35;71.37;95015.91;4985487;28;20535;-82
2022/05/30 00:40:04;;;;;;;2.10;1.90;;;;;;;10.30;71.55;95011.31;4982551;28;20200;-82
2022/05/30 00:42:31;;;;;;;2.60;2.10;;;;;;;10.32;71.41;95017.06;4990105;28;20243;-82
2022/05/30 00:44:59;;;;;;;2.40;2.20;;;;;;;10.20;71.33;95010.84;4986646;28;20231;-81
2022/05/30 00:47:25;;;;;;;2.10;2.00;;;;;;;10.05;72.42;95010.13;4983421;28;20676;-82
2022/05/30 00:49:55;;;;;;;2.50;1.90;;;;;;;9.89;72.58;95008.63;4986834;28;20316;-82
2022/05/30 00:52:25;;;;;;;2.90;2.30;;;;;;;9.88;73.55;95006.25;4992525;28;20208;-82
2022/05/30 00:54:55;;;;;;;2.13;1.97;;;;;;;9.99;72.96;95000.59;4986384;28;20220;-81
2022/05/30 00:57:22;;;;;;;2.20;2.10;;;;;;;10.07;72.03;95002.22;4985132;28;20208;-81
2022/05/30 00:59:52;;;;;;;2.20;2.10;;;;;;;10.04;71.87;94999.03;4985053;28;20228;-82
2022/05/30 01:02:19;;;;;;;2.10;1.87;;;;;;;10.07;71.88;94991.94;4985009;28;20526;-82
2022/05/30 01:07:32;;;;;;;3.00;1.90;;;;;;;10.18;71.55;94992.22;4982914;28;20842;-81
2022/05/30 01:10:01;;;;;;;2.97;2.17;;;;;;;10.13;72.14;94991.19;4987718;28;20739;-82
2022/05/30 01:12:40;;;;;;;2.87;2.40;;;;;;;10.09;72.33;94987.41;4992680;28;20208;-81
2022/05/30 01:15:09;;;;;;;2.30;2.10;;;;;;;10.14;72.42;94992.78;4973233;28;20710;-82
2022/05/30 01:17:43;;;;;;;2.13;1.93;;;;;;;10.20;71.83;94986.94;4984087;28;20204;-81
2022/05/30 01:20:21;;;;;;;2.07;1.97;;;;;;;10.26;71.66;94993.88;4975721;28;20201;-81
2022/05/30 01:23:06;;;;;;;2.27;2.07;;;;;;;10.25;71.26;94982.00;4985342;28;20220;-81
2022/05/30 01:25:54;;;;;;;2.70;2.50;;;;;;;10.19;71.74;94978.41;4991447;28;20250;-82
2022/05/30 01:28:37;;;;;;;2.40;2.20;;;;;;;10.18;71.40;94976.00;4984038;28;20235;-81
2022/05/30 01:31:04;;;;;;;2.17;1.97;;;;;;;10.20;71.25;94974.06;4987720;28;20200;-84
2022/05/30 01:33:32;;;;;;;2.73;1.93;;;;;;;10.18;71.49;94969.06;4991304;28;20202;-83
2022/05/30 01:35:58;;;;;;;2.40;2.20;;;;;;;10.23;71.33;94973.66;4988753;28;20236;-83
2022/05/30 01:38:24;;;;;;;2.53;2.07;;;;;;;10.24;70.68;94970.91;4990024;28;20231;-83
2022/05/30 01:40:51;;;;;;;2.07;1.97;;;;;;;10.31;70.44;94971.75;4989083;28;20206;-83
2022/05/30 01:43:18;;;;;;;2.27;2.07;;;;;;;10.34;70.38;94968.78;4989043;28;20251;-82
2022/05/30 01:45:45;;;;;;;2.40;2.20;;;;;;;10.36;69.93;94963.47;4990087;28;20235;-82
2022/05/30 01:48:12;;;;;;;2.70;2.20;;;;;;;10.28;69.17;94961.03;4987809;28;20656;-82
2022/05/30 01:50:38;;;;;;;2.77;2.00;;;;;;;10.23;69.50;94959.03;4986739;28;20204;-82
2022/05/30 01:53:05;;;;;;;2.43;2.23;;;;;;;10.09;69.87;94957.34;4987171;28;20200;-81
2022/05/30 01:55:31;;;;;;;2.20;2.10;;;;;;;9.92;70.61;94956.84;4990710;28;20712;-81
2022/05/30 01:57:57;;;;;;;2.43;2.23;;;;;;;9.86;70.97;94957.56;4985803;28;20285;-81
2022/05/30 02:00:25;;;;;;;2.30;2.00;;;;;;;9.91;70.90;94947.53;4991614;28;20675;-81
2022/05/30 02:02:52;;;;;;;2.43;2.10;;;;;;;9.85;70.98;94950.03;4986577;28;20602;-82
2022/05/30 02:05:19;;;;;;;2.30;2.10;;;;;;;9.88;71.06;94942.75;4979860;28;20227;-81
2022/05/30 02:07:45;;;;;;;2.40;2.20;;;;;;;9.92;70.67;94936.25;4982256;28;20212;-83
2022/05/30 02:10:12;;;;;;;1.90;1.80;;;;;;;9.87;71.14;94936.03;4986685;28;20207;-84
2022/05/30 02:12:38;;;;;;;2.30;2.10;;;;;;;9.88;70.94;94929.09;4994748;28;20285;-83
2022/05/30 02:15:06;;;;;;;2.27;2.07;;;;;;;9.89;71.00;94931.50;4977282;28;20258;-83
2022/05/30 02:17:32;;;;;;;2.07;1.90;;;;;;;9.86;70.94;94937.00;4981328;28;20549;-83
2022/05/30 02:20:00;;;;;;;2.20;2.00;;;;;;;9.91;71.16;94942.38;4982788;28;20211;-83
2022/05/30 02:22:29;;;;;;;2.20;2.00;;;;;;;10.00;70.25;94954.13;4986074;28;20243;-83
2022/05/30 02:24:55;;;;;;;2.40;2.20;;;;;;;9.92;70.18;94949.13;4984119;28;20224;-83
2022/05/30 02:27:22;;;;;;;2.30;2.20;;;;;;;9.94;70.46;94947.16;4985114;28;20253;-83
2022/05/30 02:29:48;;;;;;;2.40;2.20;;;;;;;9.89;70.35;94946.13;4983656;28;20235;-82
2022/05/30 02:32:15;;;;;;;2.77;2.13;;;;;;;9.96;69.82;94942.63;4994458;28;20199;-81
2022/05/30 02:37:27;;;;;;;2.47;2.27;;;;;;;9.96;69.73;94947.75;4984413;28;20290;-82
2022/05/30 02:39:53;;;;;;;2.40;2.20;;;;;;;9.91;70.11;94949.31;4992539;28;20274;-83
2022/05/30 02:42:20;;;;;;;2.30;2.10;;;;;;;9.84;70.74;94945.88;4993827;28;20365;-83
2022/05/30 02:44:46;;;;;;;2.30;2.10;;;;;;;9.89;70.75;94946.13;4987599;28;20228;-83
2022/05/30 02:47:13;;;;;;;2.20;2.00;;;;;;;9.95;70.43;94956.47;4993414;28;20196;-83
2022/05/30 02:49:39;;;;;;;2.63;2.20;;;;;;;10.02;70.31;94953.91;4980931;28;20239;-83
2022/05/30 02:52:06;;;;;;;4.47;2.40;;;;;;;10.15;69.61;94958.38;4992205;28;20229;-84
2022/05/30 02:54:34;;;;;;;2.60;2.40;;;;;;;10.17;69.38;94959.75;4980034;28;20643;-83
2022/05/30 02:57:01;;;;;;;3.20;2.20;;;;;;;10.16;68.96;94955.59;4985073;28;20223;-83
2022/05/30 02:59:29;;;;;;;2.30;2.10;;;;;;;10.15;68.99;94953.22;4982906;28;20654;-84
2022/05/30 03:01:55;;;;;;;2.70;2.33;;;;;;;10.12;69.22;94954.38;4991876;28;20238;-83
2022/05/30 03:04:22;;;;;;;2.70;2.13;;;;;;;10.12;69.02;94949.25;4984611;28;20249;-83
2022/05/30 03:06:49;;;;;;;2.40;2.20;;;;;;;10.12;69.39;94956.97;4983365;28;20208;-84
2022/05/30 03:09:16;;;;;;;2.30;2.10;;;;;;;10.13;68.83;94962.91;4987462;28;20309;-83
2022/05/30 03:11:44;;;;;;;2.40;2.20;;;;;;;10.18;68.89;94956.22;4982647;28;20200;-84
2022/05/30 03:14:10;;;;;;;2.87;2.17;;;;;;;10.19;69.16;94962.19;4982893;28;20215;-83
2022/05/30 03:16:36;;;;;;;3.27;2.10;;;;;;;10.23;69.14;94956.44;4989531;28;20204;-84
2022/05/30 03:19:03;;;;;;;2.67;1.90;;;;;;;10.24;68.59;94960.63;4973769;28;20219;-83
2022/05/30 03:21:29;;;;;;;2.10;2.00;;;;;;;10.24;68.91;94960.63;4990193;28;20211;-83
2022/05/30 03:23:56;;;;;;;2.20;1.93;;;;;;;10.28;68.66;94956.69;4991639;28;20218;-83
2022/05/30 03:26:22;;;;;;;2.00;1.90;;;;;;;10.26;68.92;94952.72;4991662;28;20227;-83
2022/05/30 03:28:50;;;;;;;2.43;2.00;;;;;;;10.18;68.63;94950.28;4993742;28;20282;-83
2022/05/30 03:31:16;;;;;;;2.20;2.00;;;;;;;9.92;69.43;94940.59;4991292;28;20204;-83
2022/05/30 03:33:43;;;;;;;2.10;2.00;;;;;;;9.64;71.18;94949.09;4995657;28;20206;-81
2022/05/30 03:36:15;;;;;;;3.73;2.03;;;;;;;9.41;72.77;94947.75;4987559;28;20877;-81
2022/05/30 03:38:41;;;;;;;2.30;2.10;;;;;;;9.31;73.12;94951.41;4993199;28;20223;-81
2022/05/30 03:41:08;;;;;;;2.10;1.90;;;;;;;9.39;72.68;94960.78;4991500;28;20655;-81
2022/05/30 03:43:34;;;;;;;2.87;1.90;;;;;;;9.46;72.38;94960.81;4997276;28;20227;-81
2022/05/30 03:46:02;;;;;;;2.07;1.87;;;;;;;9.53;72.79;94956.53;4981935;28;20286;-81
2022/05/30 03:48:28;;;;;;;2.40;2.20;;;;;;;9.65;72.14;94958.41;4982842;28;20578;-81
2022/05/30 03:50:55;;;;;;;2.30;2.10;;;;;;;9.74;72.57;94950.56;4987676;28;20250;-81
2022/05/30 03:53:22;;;;;;;1.80;1.70;;;;;;;9.88;71.96;94953.03;4988473;28;20199;-82
2022/05/30 03:55:48;;;;;;;2.20;1.80;;;;;;;10.02;71.71;94961.63;4989094;28;20632;-82
2022/05/30 03:58:15;;;;;;;2.17;1.97;;;;;;;10.10;70.64;94955.56;4988953;28;20281;-81
2022/05/30 04:00:43;;;;;;;2.13;1.97;;;;;;;10.15;70.47;94959.16;4987892;28;20200;-81
2022/05/30 04:03:11;;;;;;;2.30;2.10;;;;;;;10.20;70.28;94964.53;4996146;28;20610;-82
2022/05/30 04:05:38;;;;;;;1.90;1.80;;;;;;;10.16;70.78;94967.66;4987956;28;20247;-81
2022/05/30 04:08:05;;;;;;;2.20;2.00;;;;;;;10.15;70.26;94966.88;4997150;28;20278;-81
2022/05/30 04:10:32;;;;;;;6.47;2.27;;;;;;;10.47;90.33;94975.00;4984944;28;20203;-81
2022/05/30 04:13:02;;;;;;;2.17;2.00;;;;;;;10.70;71.96;94968.56;4989945;28;20199;-82
2022/05/30 04:15:29;;;;;;;2.23;2.10;;;;;;;10.72;70.97;94970.94;4986307;28;20240;-81
2022/05/30 04:17:55;;;;;;;2.33;2.13;;;;;;;10.76;70.69;94964.44;4997680;28;20250;-82
2022/05/30 04:20:23;;;;;;;2.63;2.00;;;;;;;10.78;70.15;94959.88;4982721;28;20203;-81
2022/05/30 04:22:49;;;;;;;1.90;1.80;;;;;;;10.76;70.77;94955.91;4985335;28;20224;-81
2022/05/30 04:25:16;;;;;;;3.20;1.80;;;;;;;10.76;69.60;94967.00;4988211;28;20459;-81
2022/05/30 04:27:42;;;;;;;2.10;1.90;;;;;;;10.75;69.64;94974.94;4986023;28;20261;-81
2022/05/30 04:30:10;;;;;;;2.40;2.20;;;;;;;10.71;69.86;94987.38;4983224;28;20255;-81
2022/05/30 04:32:37;;;;;;;2.40;2.20;;;;;;;10.73;70.36;94991.34;4986981;28;20286;-81
2022/05/30 04:35:05;;;;;;;2.30;2.10;;;;;;;10.80;70.61;94998.28;4982818;28;20254;-81
2022/05/30 04:37:33;;;;;;;2.20;2.00;;;;;;;10.91;69.73;94993.41;4986635;28;20568;-81
2022/05/30 04:39:59;;;;;;;3.07;2.50;;;;;;;10.99;69.80;94997.56;4986562;28;20200;-81
2022/05/30 04:42:26;;;;;;;2.40;2.20;;;;;;;11.05;69.39;94991.66;4972240;28;20205;-81
2022/05/30 04:44:52;;;;;;;2.40;2.20;;;;;;;11.09;69.79;94992.88;4975683;28;20220;-82
2022/05/30 04:47:20;;;;;;;2.43;2.23;;;;;;;11.15;69.50;94991.31;4975358;28;20680;-82
2022/05/30 04:49:47;;;;;;;2.40;2.20;;;;;;;11.14;69.72;94984.56;4974092;28;20228;-82
2022/05/30 04:52:14;;;;;;;3.47;2.80;;;;;;;11.18;70.10;94985.75;4973182;28;20575;-84
2022/05/30 04:54:42;;;;;;;4.90;2.60;;;;;;;11.23;69.86;94993.69;4975292;28;20756;-84
2022/05/30 04:57:09;;;;;;;2.70;2.50;;;;;;;11.19;70.56;94995.06;4975667;28;20259;-84
2022/05/30 04:59:39;;;;;;;2.70;2.50;;;;;;;11.05;71.06;94992.47;4974506;28;20279;-83
2022/05/30 05:02:05;;;;;;;2.80;2.50;;;;;;;11.09;70.83;94987.72;4975624;28;20200;-84
2022/05/30 05:04:32;;;;;;;2.90;2.70;;;;;;;11.13;71.56;94994.06;4962162;28;20229;-84
2022/05/30 05:06:58;;;;;;;2.80;2.60;;;;;;;11.16;72.00;94985.16;4956249;28;20212;-84
2022/05/30 05:09:31;;;;;;;3.27;2.70;;;;;;;11.15;74.44;94981.81;4956065;28;20233;-81
2022/05/30 05:11:59;;;;;;;16.80;13.60;;;;;;;11.24;73.05;94984.97;4956706;28;20205;-81
2022/05/30 05:14:25;;;;;;;33.20;27.97;;;;;;;11.41;72.38;94986.19;4956031;29;20208;-83
2022/05/30 05:16:51;;;;;;;6.47;5.87;;;;;;;11.61;71.18;94983.63;4956044;29;20204;-83
2022/05/30 05:19:18;;;;;;;3.60;3.30;;;;;;;11.79;71.04;94988.25;4956047;28;20313;-84
2022/05/30 05:21:46;;;;;;;3.20;3.00;;;;;;;11.90;71.03;94979.91;4965889;28;20208;-84
2022/05/30 05:24:15;;;;;;;4.23;3.30;;;;;;;11.95;70.99;94990.41;4975210;28;20247;-82
2022/05/30 05:26:47;;;;;;;4.47;3.77;;;;;;;11.94;71.42;94983.66;4975866;28;20255;-84
2022/05/30 05:29:16;;;;;;;3.97;3.57;;;;;;;12.05;71.47;94988.25;4974796;28;20229;-84
2022/05/30 05:31:43;;;;;;;3.37;3.07;;;;;;;11.97;70.76;94989.22;4975005;28;20680;-84
2022/05/30 05:34:12;;;;;;;3.33;3.03;;;;;;;11.95;70.46;94987.84;4975011;28;20211;-84
2022/05/30 05:36:40;;;;;;;2.90;2.70;;;;;;;11.79;71.38;94995.97;4974454;28;20208;-84
2022/05/30 05:39:07;;;;;;;3.03;2.53;;;;;;;11.76;70.42;94995.38;4974683;28;20228;-84
2022/05/30 05:41:34;;;;;;;3.57;2.60;;;;;;;11.71;70.13;94989.22;4975281;28;20208;-84
2022/05/30 05:44:00;;;;;;;2.30;2.10;;;;;;;11.74;69.82;95004.28;4974680;28;20228;-84
2022/05/30 05:46:30;;;;;;;2.50;2.30;;;;;;;11.79;69.64;94993.41;4974958;28;20255;-84
2022/05/30 05:48:58;;;;;;;2.10;1.90;;;;;;;11.91;69.42;94991.81;4974242;28;20238;-84
2022/05/30 05:51:26;;;;;;;2.00;1.90;;;;;;;11.84;67.25;94996.97;4974156;28;20204;-83
2022/05/30 05:53:53;;;;;;;1.80;1.60;;;;;;;11.96;66.88;94979.91;4974244;28;20204;-84
2022/05/30 05:56:22;;;;;;;1.60;1.50;;;;;;;11.97;65.60;94971.16;4974391;28;20224;-84
2022/05/30 05:58:49;;;;;;;1.50;1.40;;;;;;;11.97;65.65;94976.31;4974102;28;20286;-84
2022/05/30 06:01:18;;;;;;;1.70;1.60;;;;;;;12.03;65.62;94974.75;4973764;28;20251;-84
2022/05/30 06:03:46;;;;;;;2.37;1.67;;;;;;;12.15;66.03;94977.50;4974086;28;20220;-84
2022/05/30 06:06:13;;;;;;;8.80;7.87;;;;;;;12.30;65.63;94971.13;4965949;28;20232;-84
2022/05/30 06:08:39;;;;;;;2.60;2.40;;;;;;;12.43;64.94;94965.94;4974082;28;20330;-84
2022/05/30 06:11:08;;;;;;;1.60;1.50;;;;;;;12.35;64.82;94973.09;4974145;28;20197;-84
2022/05/30 06:13:35;;;;;;;1.97;1.70;;;;;;;12.34;64.53;94961.19;4974666;28;20207;-84
2022/05/30 06:16:05;;;;;;;1.77;1.53;;;;;;;12.53;64.37;94970.66;4973560;28;20290;-84
2022/05/30 06:18:32;;;;;;;1.80;1.70;;;;;;;12.52;65.75;94965.69;4974105;28;20251;-84
2022/05/30 06:21:00;;;;;;;1.90;1.70;;;;;;;12.49;64.46;94966.13;4973952;28;20556;-84
2022/05/30 06:23:26;;;;;;;1.50;1.40;;;;;;;12.49;63.07;94969.50;4974980;28;20220;-84
2022/05/30 06:25:53;;;;;;;2.33;1.80;;;;;;;12.51;62.45;94970.06;4974696;28;20471;-84
2022/05/30 06:28:19;;;;;;;1.73;1.63;;;;;;;12.46;61.74;94975.06;4974139;28;20849;-84
2022/05/30 06:30:46;;;;;;;1.50;1.40;;;;;;;12.37;63.16;94971.09;4974292;28;20199;-84
2022/05/30 06:33:12;;;;;;;1.87;1.60;;;;;;;12.36;64.20;94978.06;4974394;28;20204;-84
2022/05/30 06:35:41;;;;;;;1.70;1.60;;;;;;;12.43;63.07;94973.69;4973655;28;20220;-84
2022/05/30 06:38:10;;;;;;;2.00;1.50;;;;;;;12.41;63.25;94978.25;4974019;28;20252;-84
2022/05/30 06:40:36;;;;;;;1.37;1.27;;;;;;;12.43;62.89;94985.81;4973329;28;20242;-84
2022/05/30 06:43:04;;;;;;;3.53;1.73;;;;;;;12.53;64.22;94982.78;4973408;28;20240;-84
2022/05/30 06:45:31;;;;;;;1.73;1.50;;;;;;;12.58;61.99;94980.38;4973758;28;20227;-84
2022/05/30 06:47:58;;;;;;;1.67;1.50;;;;;;;12.60;61.09;94989.53;4973442;28;20278;-84
2022/05/30 06:50:25;;;;;;;1.90;1.50;;;;;;;12.60;60.99;94986.16;4974150;28;20579;-84
2022/05/30 06:52:51;;;;;;;2.80;1.70;;;;;;;12.68;60.73;94980.78;4974477;28;20192;-84
2022/05/30 06:55:20;;;;;;;2.50;1.50;;;;;;;12.84;61.59;94982.09;4974402;28;20216;-84
2022/05/30 07:00:31;;;;;;;4.83;2.00;;;;;;;12.99;62.19;94980.84;4973545;28;20207;-84
2022/05/30 07:02:57;;;;;;;2.03;1.60;;;;;;;13.07;59.71;94979.81;4973883;28;20280;-84
2022/05/30 07:05:24;;;;;;;3.30;1.53;;;;;;;13.03;60.75;94986.38;4973425;28;20232;-81
2022/05/30 07:07:55;;;;;;;1.50;1.40;;;;;;;13.05;60.63;94989.56;4973014;28;20374;-82
2022/05/30 07:10:24;;;;;;;1.70;1.60;;;;;;;13.11;61.50;94978.38;4973454;28;20634;-82
2022/05/30 07:12:50;;;;;;;1.70;1.43;;;;;;;13.27;62.07;94984.91;4973382;28;20200;-81
2022/05/30 07:15:17;;;;;;;1.97;1.30;;;;;;;13.39;59.97;94991.00;4973130;28;20278;-81
2022/05/30 07:17:43;;;;;;;1.53;1.43;;;;;;;13.44;60.63;94991.16;4972836;28;20215;-81
2022/05/30 07:20:11;;;;;;;1.60;1.50;;;;;;;13.57;59.53;94998.03;4973325;28;20208;-81
2022/05/30 07:22:38;;;;;;;2.57;1.50;;;;;;;13.62;58.54;94996.41;4973305;28;20208;-81
2022/05/30 07:25:05;;;;;;;1.63;1.53;;;;;;;13.58;58.64;94992.66;4973476;28;20570;-81
2022/05/30 07:27:33;;;;;;;2.27;1.43;;;;;;;13.67;59.12;94993.97;4971742;28;20259;-81
2022/05/30 07:30:00;;;;;;;1.70;1.60;;;;;;;13.70;58.17;95003.13;4973069;28;20208;-82
2022/05/30 07:32:26;;;;;;;5.67;4.93;;;;;;;13.68;58.94;94999.94;4973004;28;20212;-84
2022/05/30 07:34:52;;;;;;;3.00;2.73;;;;;;;13.83;59.84;94996.06;4973301;28;20220;-84
2022/05/30 07:37:19;;;;;;;2.40;2.20;;;;;;;13.91;58.90;94992.41;4973322;28;20723;-84
2022/05/30 07:39:45;;;;;;;2.50;2.07;;;;;;;13.82;59.03;95007.44;4972817;28;20306;-84
2022/05/30 07:42:13;;;;;;;2.10;1.90;;;;;;;13.92;58.85;94995.78;4972219;28;20250;-84
2022/05/30 07:44:41;;;;;;;2.30;2.00;;;;;;;13.97;58.71;94998.56;4972391;28;20230;-84
2022/05/30 07:47:08;;;;;;;1.90;1.80;;;;;;;14.05;56.98;94999.06;4973738;28;20200;-84
2022/05/30 07:49:35;;;;;;;2.27;2.07;;;;;;;13.78;58.06;95001.09;4972010;28;20810;-84
2022/05/30 07:52:01;;;;;;;2.07;1.87;;;;;;;13.67;58.45;95000.94;4972490;28;20692;-84
2022/05/30 07:54:27;;;;;;;2.53;2.13;;;;;;;13.77;58.14;95009.06;4972375;28;20283;-84
2022/05/30 07:56:54;;;;;;;2.33;2.00;;;;;;;14.05;57.46;95011.22;4975791;28;20624;-84
2022/05/30 07:59:20;;;;;;;1.57;1.47;;;;;;;14.24;56.72;95017.25;4975906;28;20802;-84
2022/05/30 08:01:48;;;;;;;2.13;1.60;;;;;;;14.20;57.61;95009.13;4975630;28;20299;-84
2022/05/30 08:04:15;;;;;;;2.00;1.80;;;;;;;14.26;57.23;95007.44;4976791;28;20220;-84
2022/05/30 08:06:42;;;;;;;1.80;1.70;;;;;;;14.34;56.92;95004.59;4977039;28;20207;-84
2022/05/30 08:09:08;;;;;;;2.07;1.87;;;;;;;14.12;57.93;95007.56;4978714;28;20263;-84
2022/05/30 08:11:35;;;;;;;2.10;1.90;;;;;;;14.04;57.12;95013.03;4976205;28;20265;-84
2022/05/30 08:14:01;;;;;;;3.47;2.00;;;;;;;14.32;58.14;95006.59;4976521;28;20201;-84
2022/05/30 08:16:28;;;;;;;1.77;1.67;;;;;;;14.40;56.82;95012.34;4976139;28;20224;-84
2022/05/30 08:18:56;;;;;;;3.20;1.90;;;;;;;14.48;56.61;95011.25;4975796;28;20232;-84
2022/05/30 08:21:22;;;;;;;2.03;1.93;;;;;;;14.20;56.82;95010.91;4975967;28;20210;-84
2022/05/30 08:23:48;;;;;;;3.03;2.00;;;;;;;14.38;56.89;95016.13;4975798;28;20700;-84
2022/05/30 08:26:15;;;;;;;2.00;1.70;;;;;;;14.50;56.74;95015.22;4976134;28;20228;-84
2022/05/30 08:28:41;;;;;;;2.47;1.80;;;;;;;14.57;55.63;95009.97;4975274;28;20228;-84
2022/05/30 08:31:08;;;;;;;5.03;1.80;;;;;;;14.79;55.12;95013.75;4976029;28;20208;-84
2022/05/30 08:33:35;;;;;;;1.77;1.67;;;;;;;14.66;55.62;95021.63;4976730;28;20204;-84
2022/05/30 08:36:05;;;;;;;7.75;6.70;;;;;;;14.91;54.23;95025.97;4976572;28;20298;-84
2022/05/30 08:38:33;;;;;;;7.03;6.17;;;;;;;15.12;53.89;95025.53;4975679;28;20686;-83
2022/05/30 08:43:49;;;;;;;2.22;1.40;;;;;;;15.23;53.74;95019.59;4975415;28;20219;-84
2022/05/30 08:46:31;;;;;;;1.77;1.50;;;;;;;15.39;53.89;95028.59;4976420;28;20283;-84
2022/05/30 08:49:09;;;;;;;2.58;1.48;;;;;;;15.61;53.42;95032.28;4975066;28;20228;-84
2022/05/30 08:51:52;;;;;;;1.50;1.40;;;;;;;16.14;51.76;95032.31;4975062;28;20208;-84
2022/05/30 08:54:37;;;;;;;3.90;1.60;;;;;;;16.42;50.90;95023.03;4975147;28;20258;-84
2022/05/30 08:57:08;;;;;;;1.95;1.60;;;;;;;16.50;49.30;95026.09;4975158;28;20290;-84
2022/05/30 08:59:53;;;;;;;1.95;1.35;;;;;;;16.57;47.91;95021.56;4975360;28;20228;-84
2022/05/30 09:02:26;;;;;;;3.08;1.90;;;;;;;16.63;48.55;95022.50;4975576;28;20208;-84
2022/05/30 09:04:59;;;;;;;2.85;1.67;;;;;;;16.73;49.63;95035.72;4975208;28;20227;-85
2022/05/30 09:07:31;;;;;;;1.55;1.45;;;;;;;16.52;49.55;95023.28;4975205;28;20196;-84
2022/05/30 09:10:05;;;;;;;2.78;1.63;;;;;;;16.19;49.74;95032.41;4975286;28;20231;-84
2022/05/30 09:12:37;;;;;;;4.55;1.92;;;;;;;16.06;50.07;95037.03;4975523;28;20231;-81
2022/05/30 09:15:08;;;;;;;1.70;1.55;;;;;;;15.98;50.86;95037.34;4975429;28;20368;-81
2022/05/30 09:17:38;;;;;;;2.10;1.90;;;;;;;15.78;50.67;95035.81;4975298;28;20216;-81
2022/05/30 09:20:09;;;;;;;2.33;1.52;;;;;;;15.84;49.37;95034.16;4975352;28;20448;-82
2022/05/30 09:22:38;;;;;;;1.50;1.40;;;;;;;15.76;50.11;95026.69;4975777;28;20219;-82
2022/05/30 09:27:50;;;;;;;1.80;1.70;;;;;;;16.02;47.92;95028.88;4974633;28;20315;-82
2022/05/30 09:30:21;;;;;;;1.60;1.50;;;;;;;16.30;46.61;95017.84;4975171;28;20262;-82
2022/05/30 09:32:59;;;;;;;2.90;1.83;;;;;;;16.90;46.11;95021.00;4975153;28;20200;-84
2022/05/30 09:35:28;;;;;;;2.15;1.70;;;;;;;17.09;46.20;95010.44;4975944;28;20220;-84
2022/05/30 09:38:09;;;;;;;2.58;1.60;;;;;;;17.46;46.28;95026.50;4974810;28;20231;-82
2022/05/30 09:40:42;;;;;;;2.05;1.90;;;;;;;17.46;45.25;95014.25;4975010;28;20204;-82
2022/05/30 09:43:22;;;;;;;1.73;1.63;;;;;;;17.44;46.58;95018.13;4975203;28;20200;-82
2022/05/30 09:45:49;;;;;;;2.90;1.80;;;;;;;16.94;47.42;95018.72;4975676;28;20636;-82
2022/05/30 09:48:19;;;;;;;2.42;1.52;;;;;;;16.59;47.38;95026.53;4974950;28;20605;-81
2022/05/30 09:50:48;;;;;;;1.90;1.67;;;;;;;16.53;47.45;95024.88;4975098;28;20210;-81
2022/05/30 09:53:41;;;;;;;1.60;1.50;;;;;;;17.12;44.55;95018.59;4974871;28;20209;-82
2022/05/30 09:56:09;;;;;;;3.17;1.63;;;;;;;17.35;46.02;95016.91;4975994;28;20251;-81
2022/05/30 09:58:44;;;;;;;4.45;3.97;;;;;;;17.55;45.94;95025.06;4974546;28;20235;-81
2022/05/30 10:01:12;;;;;;;11.75;10.63;;;;;;;18.04;45.90;95022.81;4974523;28;20294;-81
2022/05/30 10:03:41;;;;;;;9.45;8.55;;;;;;;18.54;45.58;95018.38;4973826;28;20193;-81
2022/05/30 10:06:14;;;;;;;3.03;2.72;;;;;;;18.64;45.04;95017.75;4973891;28;20235;-81
2022/05/30 10:08:42;;;;;;;2.40;1.92;;;;;;;18.48;44.28;95024.53;4974484;28;20251;-81
2022/05/30 10:11:09;;;;;;;1.50;1.40;;;;;;;18.25;44.70;95022.13;4973794;28;20212;-81
2022/05/30 10:13:42;;;;;;;2.38;1.75;;;;;;;17.57;44.33;95023.81;4974130;28;20258;-81
2022/05/30 10:16:12;;;;;;;1.80;1.70;;;;;;;17.04;44.97;95024.13;4974521;28;20738;-83
2022/05/30 10:18:51;;;;;;;2.00;1.63;;;;;;;16.83;45.72;95022.94;4971417;28;20239;-84
2022/05/30 10:21:32;;;;;;;2.08;1.80;;;;;;;16.83;47.79;95020.31;4972422;28;20227;-81
2022/05/30 10:30:06;;;;;;;2.15;1.88;;;;;;;16.99;45.25;95012.81;4971532;28;20635;-80
2022/05/30 10:32:42;;;;;;;2.33;1.80;;;;;;;16.73;45.50;95017.53;4971950;28;20203;-82
2022/05/30 10:35:18;;;;;;;3.42;2.08;;;;;;;17.25;43.22;95014.91;4971980;28;20227;-80
2022/05/30 10:38:03;;;;;;;1.70;1.60;;;;;;;17.57;43.06;95012.63;4973097;28;20203;-81
2022/05/30 10:40:43;;;;;;;2.10;1.80;;;;;;;17.98;43.55;95015.94;4973457;28;20653;-81
2022/05/30 10:43:14;;;;;;;1.65;1.50;;;;;;;18.38;44.04;95016.56;4973388;28;20204;-81
2022/05/30 10:45:46;;;;;;;1.85;1.60;;;;;;;18.56;41.97;95012.91;4973188;28;20232;-81
2022/05/30 10:48:19;;;;;;;1.52;1.42;;;;;;;18.93;42.02;95013.94;4972895;28;20236;-81
2022/05/30 10:50:53;;;;;;;1.60;1.50;;;;;;;19.18;42.36;95016.09;4973188;28;20236;-81
2022/05/30 10:53:30;;;;;;;1.50;1.40;;;;;;;18.97;39.98;95015.06;4973363;28;20211;-81
2022/05/30 10:56:02;;;;;;;18.55;16.67;;;;;;;19.13;39.60;95010.00;4972969;28;20223;-81
2022/05/30 10:58:34;;;;;;;11.73;10.63;;;;;;;19.18;40.47;95010.88;4973116;28;20232;-81
2022/05/30 11:01:05;;;;;;;5.55;4.57;;;;;;;19.50;42.17;95008.34;4971076;28;20727;-82
2022/05/30 11:03:38;;;;;;;2.45;2.08;;;;;;;19.86;39.97;95016.53;4967917;28;20275;-82
2022/05/30 11:06:09;;;;;;;2.45;1.70;;;;;;;20.02;38.81;95008.56;4954254;28;20232;-82
2022/05/30 11:08:45;;;;;;;1.80;1.70;;;;;;;20.16;39.00;95011.56;4953905;28;20651;-82
2022/05/30 11:11:18;;;;;;;1.77;1.55;;;;;;;20.31;37.74;95016.91;4954160;28;20208;-82
2022/05/30 11:13:49;;;;;;;1.92;1.45;;;;;;;20.33;39.43;95014.81;4954404;28;20765;-82
2022/05/30 11:16:29;;;;;;;2.08;1.70;;;;;;;20.27;39.32;95017.63;4954261;28;20221;-82
2022/05/30 11:19:01;;;;;;;2.10;1.88;;;;;;;19.63;38.54;95028.84;4953941;28;20377;-82
2022/05/30 11:21:33;;;;;;;1.50;1.40;;;;;;;19.08;40.18;95023.78;4954134;28;20228;-82
2022/05/30 11:24:02;;;;;;;2.67;1.73;;;;;;;18.75;40.86;95019.47;4954078;28;20204;-82
2022/05/30 11:27:04;;;;;;;1.83;1.48;;;;;;;18.51;40.37;95031.06;4953722;28;20235;-82
2022/05/30 11:30:09;;;;;;;1.70;1.45;;;;;;;18.20;41.92;95035.84;4946837;28;20687;-82
2022/05/30 11:33:03;;;;;;;1.83;1.38;;;;;;;18.11;42.18;95039.88;4955101;29;20271;-82
2022/05/30 11:35:35;;;;;;;2.25;1.50;;;;;;;17.96;42.75;95039.63;4975905;28;20224;-84
2022/05/30 11:38:20;;;;;;;2.30;1.60;;;;;;;17.97;41.43;95038.59;4977158;28;20234;-82
2022/05/30 11:40:56;;;;;;;1.50;1.40;;;;;;;18.20;42.07;95035.84;4976768;28;20255;-82
2022/05/30 11:43:49;;;;;;;2.45;1.55;;;;;;;18.71;42.25;95025.38;4977228;28;20207;-82
2022/05/30 11:46:23;;;;;;;2.38;1.60;;;;;;;19.23;40.44;95031.03;4976612;28;20231;-82
2022/05/30 11:48:57;;;;;;;2.42;1.52;;;;;;;19.48;38.66;95033.88;4976671;28;20282;-82
2022/05/30 11:51:34;;;;;;;1.50;1.40;;;;;;;19.82;39.67;95026.66;4976371;28;20913;-82
2022/05/30 11:54:26;;;;;;;1.98;1.38;;;;;;;20.11;39.07;95024.59;4976643;28;20428;-82
2022/05/30 11:57:01;;;;;;;1.40;1.30;;;;;;;20.22;38.30;95023.63;4976957;28;20223;-82
2022/05/30 11:59:52;;;;;;;1.85;1.63;;;;;;;19.95;38.01;95041.97;4976310;28;20228;-82
2022/05/30 12:02:26;;;;;;;2.60;2.40;;;;;;;19.90;36.76;95038.50;4976436;28;20726;-82
2022/05/30 12:05:18;;;;;;;2.35;1.73;;;;;;;19.85;37.14;95041.06;4976469;28;20278;-82